sensor_id;sensor_type;location;lat;lon;timestamp;P1;durP1;ratioP1;P2;durP2;ratioP2
71106;SDS011;58763;47.982;11.516;2022-08-01T00:00:29;7.22;;;3.50;;
71106;SDS011;58763;47.982;11.516;2022-08-01T00:02:55;5.97;;;3.20;;
71106;SDS011;58763;47.982;11.516;2022-08-01T00:05:20;5.47;;;3.40;;
71106;SDS011;58763;47.982;11.516;2022-08-01T00:07:46;6.63;;;3.75;;
71106;SDS011;58763;47.982;11.516;2022-08-01T00:10:12;6.18;;;3.40;;
71106;SDS011;58763;47.982;11.516;2022-08-01T00:12:40;5.53;;;3.20;;
71106;SDS011;58763;47.982;11.516;2022-08-01T00:15:07;5.50;;;3.95;;
71106;SDS011;58763;47.982;11.516;2022-08-01T00:17:33;6.32;;;3.70;;
71106;SDS011;58763;47.982;11.516;2022-08-01T00:20:00;4.65;;;3.60;;
71106;SDS011;58763;47.982;11.516;2022-08-01T00:22:25;6.35;;;3.50;;
71106;SDS011;58763;47.982;11.516;2022-08-01T00:24:51;5.20;;;3.22;;
71106;SDS011;58763;47.982;11.516;2022-08-01T00:27:16;7.40;;;3.40;;
71106;SDS011;58763;47.982;11.516;2022-08-01T00:29:42;4.60;;;3.05;;
71106;SDS011;58763;47.982;11.516;2022-08-01T00:32:07;4.20;;;2.95;;
71106;SDS011;58763;47.982;11.516;2022-08-01T00:34:33;4.45;;;3.17;;
71106;SDS011;58763;47.982;11.516;2022-08-01T00:36:58;5.22;;;3.20;;
71106;SDS011;58763;47.982;11.516;2022-08-01T00:39:24;5.85;;;3.42;;
71106;SDS011;58763;47.982;11.516;2022-08-01T00:41:49;5.40;;;3.10;;
71106;SDS011;58763;47.982;11.516;2022-08-01T00:44:15;4.75;;;3.20;;
71106;SDS011;58763;47.982;11.516;2022-08-01T00:46:41;6.47;;;3.42;;
71106;SDS011;58763;47.982;11.516;2022-08-01T00:49:07;4.35;;;3.05;;
71106;SDS011;58763;47.982;11.516;2022-08-01T00:51:32;5.13;;;3.13;;
71106;SDS011;58763;47.982;11.516;2022-08-01T00:53:58;4.28;;;2.90;;
71106;SDS011;58763;47.982;11.516;2022-08-01T00:56:25;3.85;;;2.88;;
71106;SDS011;58763;47.982;11.516;2022-08-01T00:58:52;4.75;;;3.00;;
71106;SDS011;58763;47.982;11.516;2022-08-01T01:01:18;5.90;;;3.30;;
71106;SDS011;58763;47.982;11.516;2022-08-01T01:03:46;5.07;;;3.08;;
71106;SDS011;58763;47.982;11.516;2022-08-01T01:06:35;5.20;;;3.20;;
71106;SDS011;58763;47.982;11.516;2022-08-01T01:12:02;4.97;;;2.95;;
71106;SDS011;58763;47.982;11.516;2022-08-01T01:14:38;5.03;;;2.97;;
71106;SDS011;58763;47.982;11.516;2022-08-01T01:17:11;4.45;;;2.90;;
71106;SDS011;58763;47.982;11.516;2022-08-01T01:19:41;4.32;;;3.00;;
71106;SDS011;58763;47.982;11.516;2022-08-01T01:27:51;4.38;;;3.00;;
71106;SDS011;58763;47.982;11.516;2022-08-01T01:32:55;5.68;;;2.55;;
71106;SDS011;58763;47.982;11.516;2022-08-01T01:35:27;4.72;;;2.47;;
71106;SDS011;58763;47.982;11.516;2022-08-01T01:37:58;5.43;;;2.83;;
71106;SDS011;58763;47.982;11.516;2022-08-01T01:40:29;4.50;;;2.95;;
71106;SDS011;58763;47.982;11.516;2022-08-01T01:42:55;4.80;;;2.58;;
71106;SDS011;58763;47.982;11.516;2022-08-01T01:45:23;4.68;;;2.50;;
71106;SDS011;58763;47.982;11.516;2022-08-01T01:47:50;4.55;;;2.80;;
71106;SDS011;58763;47.982;11.516;2022-08-01T01:50:16;4.75;;;2.90;;
71106;SDS011;58763;47.982;11.516;2022-08-01T01:52:45;6.63;;;2.90;;
71106;SDS011;58763;47.982;11.516;2022-08-01T01:55:12;5.05;;;2.60;;
71106;SDS011;58763;47.982;11.516;2022-08-01T01:57:40;4.00;;;2.60;;
71106;SDS011;58763;47.982;11.516;2022-08-01T02:00:11;4.85;;;2.80;;
71106;SDS011;58763;47.982;11.516;2022-08-01T02:02:38;5.10;;;2.90;;
71106;SDS011;58763;47.982;11.516;2022-08-01T02:05:08;6.97;;;2.80;;
71106;SDS011;58763;47.982;11.516;2022-08-01T02:07:35;5.70;;;2.85;;
71106;SDS011;58763;47.982;11.516;2022-08-01T02:10:03;5.97;;;3.05;;
71106;SDS011;58763;47.982;11.516;2022-08-01T02:12:30;5.75;;;3.00;;
71106;SDS011;58763;47.982;11.516;2022-08-01T02:14:59;8.30;;;2.78;;
71106;SDS011;58763;47.982;11.516;2022-08-01T02:17:27;5.30;;;2.50;;
71106;SDS011;58763;47.982;11.516;2022-08-01T02:19:53;4.13;;;2.80;;
71106;SDS011;58763;47.982;11.516;2022-08-01T02:22:21;5.55;;;2.95;;
71106;SDS011;58763;47.982;11.516;2022-08-01T02:25:06;3.83;;;2.58;;
71106;SDS011;58763;47.982;11.516;2022-08-01T02:27:39;4.00;;;2.42;;
71106;SDS011;58763;47.982;11.516;2022-08-01T02:30:09;4.25;;;2.40;;
71106;SDS011;58763;47.982;11.516;2022-08-01T02:32:47;4.50;;;2.40;;
71106;SDS011;58763;47.982;11.516;2022-08-01T02:35:26;4.10;;;2.50;;
71106;SDS011;58763;47.982;11.516;2022-08-01T02:37:53;5.28;;;2.72;;
71106;SDS011;58763;47.982;11.516;2022-08-01T02:40:21;3.63;;;2.33;;
71106;SDS011;58763;47.982;11.516;2022-08-01T02:42:49;3.78;;;2.45;;
71106;SDS011;58763;47.982;11.516;2022-08-01T02:45:19;3.80;;;2.50;;
71106;SDS011;58763;47.982;11.516;2022-08-01T02:47:48;3.72;;;2.58;;
71106;SDS011;58763;47.982;11.516;2022-08-01T02:50:15;5.28;;;2.22;;
71106;SDS011;58763;47.982;11.516;2022-08-01T02:52:43;4.43;;;2.70;;
71106;SDS011;58763;47.982;11.516;2022-08-01T02:55:13;4.13;;;2.58;;
71106;SDS011;58763;47.982;11.516;2022-08-01T02:57:39;4.95;;;2.38;;
71106;SDS011;58763;47.982;11.516;2022-08-01T03:00:07;4.25;;;2.50;;
71106;SDS011;58763;47.982;11.516;2022-08-01T03:02:33;3.90;;;2.40;;
71106;SDS011;58763;47.982;11.516;2022-08-01T03:05:00;4.82;;;2.60;;
71106;SDS011;58763;47.982;11.516;2022-08-01T03:07:27;4.47;;;2.40;;
71106;SDS011;58763;47.982;11.516;2022-08-01T03:09:54;5.72;;;2.70;;
71106;SDS011;58763;47.982;11.516;2022-08-01T03:12:24;4.90;;;2.65;;
71106;SDS011;58763;47.982;11.516;2022-08-01T03:14:53;6.30;;;2.38;;
71106;SDS011;58763;47.982;11.516;2022-08-01T03:17:21;3.78;;;2.47;;
71106;SDS011;58763;47.982;11.516;2022-08-01T03:19:50;3.85;;;2.38;;
71106;SDS011;58763;47.982;11.516;2022-08-01T03:22:17;4.90;;;2.33;;
71106;SDS011;58763;47.982;11.516;2022-08-01T03:24:46;4.50;;;2.47;;
71106;SDS011;58763;47.982;11.516;2022-08-01T03:27:16;7.63;;;2.42;;
71106;SDS011;58763;47.982;11.516;2022-08-01T03:29:44;4.05;;;2.50;;
71106;SDS011;58763;47.982;11.516;2022-08-01T03:32:10;3.60;;;2.40;;
71106;SDS011;58763;47.982;11.516;2022-08-01T03:34:37;4.78;;;2.58;;
71106;SDS011;58763;47.982;11.516;2022-08-01T03:37:17;5.35;;;2.70;;
71106;SDS011;58763;47.982;11.516;2022-08-01T03:39:50;4.93;;;2.88;;
71106;SDS011;58763;47.982;11.516;2022-08-01T03:42:25;5.65;;;3.00;;
71106;SDS011;58763;47.982;11.516;2022-08-01T03:45:02;4.72;;;2.67;;
71106;SDS011;58763;47.982;11.516;2022-08-01T03:47:31;5.05;;;3.13;;
71106;SDS011;58763;47.982;11.516;2022-08-01T03:49:58;5.97;;;2.95;;
71106;SDS011;58763;47.982;11.516;2022-08-01T03:52:27;5.35;;;3.00;;
71106;SDS011;58763;47.982;11.516;2022-08-01T03:54:54;5.20;;;3.20;;
71106;SDS011;58763;47.982;11.516;2022-08-01T03:57:23;5.72;;;3.42;;
71106;SDS011;58763;47.982;11.516;2022-08-01T03:59:53;4.00;;;2.80;;
71106;SDS011;58763;47.982;11.516;2022-08-01T04:02:20;5.65;;;3.22;;
71106;SDS011;58763;47.982;11.516;2022-08-01T04:04:46;6.72;;;3.10;;
71106;SDS011;58763;47.982;11.516;2022-08-01T04:07:25;4.45;;;2.75;;
71106;SDS011;58763;47.982;11.516;2022-08-01T04:09:55;5.40;;;2.75;;
71106;SDS011;58763;47.982;11.516;2022-08-01T04:12:22;4.82;;;3.05;;
71106;SDS011;58763;47.982;11.516;2022-08-01T04:14:47;5.57;;;3.00;;
71106;SDS011;58763;47.982;11.516;2022-08-01T04:17:14;5.00;;;2.80;;
71106;SDS011;58763;47.982;11.516;2022-08-01T04:19:40;6.00;;;3.00;;
71106;SDS011;58763;47.982;11.516;2022-08-01T04:22:06;5.25;;;3.15;;
71106;SDS011;58763;47.982;11.516;2022-08-01T04:24:33;3.92;;;2.70;;
71106;SDS011;58763;47.982;11.516;2022-08-01T04:27:01;6.65;;;3.10;;
71106;SDS011;58763;47.982;11.516;2022-08-01T04:29:29;5.10;;;3.00;;
71106;SDS011;58763;47.982;11.516;2022-08-01T04:31:57;4.28;;;3.00;;
71106;SDS011;58763;47.982;11.516;2022-08-01T04:34:25;6.25;;;3.17;;
71106;SDS011;58763;47.982;11.516;2022-08-01T04:36:55;5.25;;;2.80;;
71106;SDS011;58763;47.982;11.516;2022-08-01T04:39:26;5.32;;;2.92;;
71106;SDS011;58763;47.982;11.516;2022-08-01T04:41:55;5.32;;;2.78;;
71106;SDS011;58763;47.982;11.516;2022-08-01T04:44:24;5.82;;;2.88;;
71106;SDS011;58763;47.982;11.516;2022-08-01T04:46:50;4.82;;;2.90;;
71106;SDS011;58763;47.982;11.516;2022-08-01T04:49:19;4.00;;;2.90;;
71106;SDS011;58763;47.982;11.516;2022-08-01T04:51:49;5.25;;;2.63;;
71106;SDS011;58763;47.982;11.516;2022-08-01T04:54:23;4.38;;;2.97;;
71106;SDS011;58763;47.982;11.516;2022-08-01T04:56:50;4.40;;;3.00;;
71106;SDS011;58763;47.982;11.516;2022-08-01T04:59:15;5.13;;;2.95;;
71106;SDS011;58763;47.982;11.516;2022-08-01T05:01:59;6.95;;;2.53;;
71106;SDS011;58763;47.982;11.516;2022-08-01T05:04:25;6.35;;;3.45;;
71106;SDS011;58763;47.982;11.516;2022-08-01T05:06:50;5.65;;;2.90;;
71106;SDS011;58763;47.982;11.516;2022-08-01T05:09:16;8.55;;;2.95;;
71106;SDS011;58763;47.982;11.516;2022-08-01T05:11:41;4.78;;;2.72;;
71106;SDS011;58763;47.982;11.516;2022-08-01T05:14:06;3.90;;;2.42;;
71106;SDS011;58763;47.982;11.516;2022-08-01T05:16:32;4.50;;;2.72;;
71106;SDS011;58763;47.982;11.516;2022-08-01T05:18:57;5.03;;;2.50;;
71106;SDS011;58763;47.982;11.516;2022-08-01T05:21:23;4.63;;;2.60;;
71106;SDS011;58763;47.982;11.516;2022-08-01T05:23:48;5.78;;;2.50;;
71106;SDS011;58763;47.982;11.516;2022-08-01T05:26:14;5.78;;;2.72;;
71106;SDS011;58763;47.982;11.516;2022-08-01T05:28:39;4.68;;;2.95;;
71106;SDS011;58763;47.982;11.516;2022-08-01T05:31:05;4.32;;;2.45;;
71106;SDS011;58763;47.982;11.516;2022-08-01T05:33:30;4.38;;;2.65;;
71106;SDS011;58763;47.982;11.516;2022-08-01T05:35:56;4.10;;;2.55;;
71106;SDS011;58763;47.982;11.516;2022-08-01T05:38:21;5.18;;;2.75;;
71106;SDS011;58763;47.982;11.516;2022-08-01T05:40:46;4.75;;;2.60;;
71106;SDS011;58763;47.982;11.516;2022-08-01T05:43:12;4.15;;;2.38;;
71106;SDS011;58763;47.982;11.516;2022-08-01T05:45:37;4.55;;;2.60;;
71106;SDS011;58763;47.982;11.516;2022-08-01T05:48:03;4.50;;;2.50;;
71106;SDS011;58763;47.982;11.516;2022-08-01T05:50:28;4.60;;;2.65;;
71106;SDS011;58763;47.982;11.516;2022-08-01T05:52:54;4.60;;;2.40;;
71106;SDS011;58763;47.982;11.516;2022-08-01T05:55:19;4.38;;;2.45;;
71106;SDS011;58763;47.982;11.516;2022-08-01T05:57:44;6.38;;;2.40;;
71106;SDS011;58763;47.982;11.516;2022-08-01T06:00:10;4.35;;;2.50;;
71106;SDS011;58763;47.982;11.516;2022-08-01T06:02:41;5.03;;;2.35;;
71106;SDS011;58763;47.982;11.516;2022-08-01T06:05:07;4.78;;;2.60;;
71106;SDS011;58763;47.982;11.516;2022-08-01T06:07:34;5.57;;;2.40;;
71106;SDS011;58763;47.982;11.516;2022-08-01T06:09:59;3.85;;;2.53;;
71106;SDS011;58763;47.982;11.516;2022-08-01T06:12:24;4.63;;;2.40;;
71106;SDS011;58763;47.982;11.516;2022-08-01T06:14:50;6.00;;;2.60;;
71106;SDS011;58763;47.982;11.516;2022-08-01T06:17:15;5.65;;;2.47;;
71106;SDS011;58763;47.982;11.516;2022-08-01T06:19:41;5.25;;;2.50;;
71106;SDS011;58763;47.982;11.516;2022-08-01T06:22:06;4.20;;;2.47;;
71106;SDS011;58763;47.982;11.516;2022-08-01T06:24:32;4.53;;;2.30;;
71106;SDS011;58763;47.982;11.516;2022-08-01T06:26:57;4.60;;;2.90;;
71106;SDS011;58763;47.982;11.516;2022-08-01T06:29:22;5.85;;;2.45;;
71106;SDS011;58763;47.982;11.516;2022-08-01T06:31:48;4.32;;;2.28;;
71106;SDS011;58763;47.982;11.516;2022-08-01T06:34:13;4.70;;;2.50;;
71106;SDS011;58763;47.982;11.516;2022-08-01T06:36:40;6.50;;;2.40;;
71106;SDS011;58763;47.982;11.516;2022-08-01T06:39:05;4.57;;;2.20;;
71106;SDS011;58763;47.982;11.516;2022-08-01T06:41:31;3.72;;;2.38;;
71106;SDS011;58763;47.982;11.516;2022-08-01T06:43:57;3.95;;;2.25;;
71106;SDS011;58763;47.982;11.516;2022-08-01T06:46:24;5.25;;;2.30;;
71106;SDS011;58763;47.982;11.516;2022-08-01T06:48:50;5.10;;;2.47;;
71106;SDS011;58763;47.982;11.516;2022-08-01T06:51:15;3.92;;;2.13;;
71106;SDS011;58763;47.982;11.516;2022-08-01T06:53:44;4.32;;;2.30;;
71106;SDS011;58763;47.982;11.516;2022-08-01T06:56:10;4.50;;;2.22;;
71106;SDS011;58763;47.982;11.516;2022-08-01T06:58:35;5.93;;;2.67;;
71106;SDS011;58763;47.982;11.516;2022-08-01T07:01:02;3.47;;;2.00;;
71106;SDS011;58763;47.982;11.516;2022-08-01T07:03:31;6.70;;;2.80;;
71106;SDS011;58763;47.982;11.516;2022-08-01T07:05:56;4.00;;;2.45;;
71106;SDS011;58763;47.982;11.516;2022-08-01T07:08:22;4.20;;;2.10;;
71106;SDS011;58763;47.982;11.516;2022-08-01T07:10:47;3.72;;;2.25;;
71106;SDS011;58763;47.982;11.516;2022-08-01T07:13:13;3.92;;;2.33;;
71106;SDS011;58763;47.982;11.516;2022-08-01T07:15:40;4.32;;;2.30;;
71106;SDS011;58763;47.982;11.516;2022-08-01T07:18:05;5.00;;;2.60;;
71106;SDS011;58763;47.982;11.516;2022-08-01T07:20:30;4.95;;;2.22;;
71106;SDS011;58763;47.982;11.516;2022-08-01T07:22:56;4.90;;;2.42;;
71106;SDS011;58763;47.982;11.516;2022-08-01T07:25:21;4.28;;;2.30;;
71106;SDS011;58763;47.982;11.516;2022-08-01T07:27:47;3.95;;;2.25;;
71106;SDS011;58763;47.982;11.516;2022-08-01T07:30:13;5.53;;;2.47;;
71106;SDS011;58763;47.982;11.516;2022-08-01T07:32:38;5.18;;;2.50;;
71106;SDS011;58763;47.982;11.516;2022-08-01T07:35:04;5.40;;;2.33;;
71106;SDS011;58763;47.982;11.516;2022-08-01T07:37:29;3.95;;;2.40;;
71106;SDS011;58763;47.982;11.516;2022-08-01T07:39:55;3.83;;;2.40;;
71106;SDS011;58763;47.982;11.516;2022-08-01T07:42:20;4.72;;;2.58;;
71106;SDS011;58763;47.982;11.516;2022-08-01T07:44:45;4.30;;;2.50;;
71106;SDS011;58763;47.982;11.516;2022-08-01T07:47:11;5.13;;;2.38;;
71106;SDS011;58763;47.982;11.516;2022-08-01T07:49:36;4.78;;;2.35;;
71106;SDS011;58763;47.982;11.516;2022-08-01T07:52:02;4.38;;;2.40;;
71106;SDS011;58763;47.982;11.516;2022-08-01T07:54:28;4.55;;;2.42;;
71106;SDS011;58763;47.982;11.516;2022-08-01T07:56:54;3.95;;;2.25;;
71106;SDS011;58763;47.982;11.516;2022-08-01T07:59:20;4.50;;;2.60;;
71106;SDS011;58763;47.982;11.516;2022-08-01T08:01:51;3.67;;;2.28;;
71106;SDS011;58763;47.982;11.516;2022-08-01T08:04:16;4.47;;;2.35;;
71106;SDS011;58763;47.982;11.516;2022-08-01T08:06:42;6.43;;;2.50;;
71106;SDS011;58763;47.982;11.516;2022-08-01T08:09:09;5.30;;;2.50;;
71106;SDS011;58763;47.982;11.516;2022-08-01T08:11:35;7.13;;;2.58;;
71106;SDS011;58763;47.982;11.516;2022-08-01T08:14:00;5.90;;;2.58;;
71106;SDS011;58763;47.982;11.516;2022-08-01T08:16:26;4.55;;;2.55;;
71106;SDS011;58763;47.982;11.516;2022-08-01T08:18:51;5.65;;;2.60;;
71106;SDS011;58763;47.982;11.516;2022-08-01T08:21:17;5.30;;;2.60;;
71106;SDS011;58763;47.982;11.516;2022-08-01T08:23:42;4.22;;;2.60;;
71106;SDS011;58763;47.982;11.516;2022-08-01T08:26:26;5.88;;;2.75;;
71106;SDS011;58763;47.982;11.516;2022-08-01T08:28:52;4.40;;;2.80;;
71106;SDS011;58763;47.982;11.516;2022-08-01T08:31:17;6.05;;;3.00;;
71106;SDS011;58763;47.982;11.516;2022-08-01T08:33:42;4.20;;;2.30;;
71106;SDS011;58763;47.982;11.516;2022-08-01T08:36:08;4.78;;;2.47;;
71106;SDS011;58763;47.982;11.516;2022-08-01T08:38:33;4.47;;;3.00;;
71106;SDS011;58763;47.982;11.516;2022-08-01T08:40:59;4.43;;;2.80;;
71106;SDS011;58763;47.982;11.516;2022-08-01T08:43:24;4.80;;;2.70;;
71106;SDS011;58763;47.982;11.516;2022-08-01T08:45:51;3.72;;;2.28;;
71106;SDS011;58763;47.982;11.516;2022-08-01T08:48:17;4.78;;;2.35;;
71106;SDS011;58763;47.982;11.516;2022-08-01T08:50:43;4.63;;;2.38;;
71106;SDS011;58763;47.982;11.516;2022-08-01T08:53:10;4.65;;;2.28;;
71106;SDS011;58763;47.982;11.516;2022-08-01T08:55:39;4.22;;;2.35;;
71106;SDS011;58763;47.982;11.516;2022-08-01T08:58:09;3.90;;;2.20;;
71106;SDS011;58763;47.982;11.516;2022-08-01T09:00:39;4.05;;;2.30;;
71106;SDS011;58763;47.982;11.516;2022-08-01T09:03:05;4.43;;;2.78;;
71106;SDS011;58763;47.982;11.516;2022-08-01T09:05:30;4.07;;;2.25;;
71106;SDS011;58763;47.982;11.516;2022-08-01T09:07:56;3.92;;;2.10;;
71106;SDS011;58763;47.982;11.516;2022-08-01T09:10:21;4.13;;;2.13;;
71106;SDS011;58763;47.982;11.516;2022-08-01T09:15:51;4.68;;;2.25;;
71106;SDS011;58763;47.982;11.516;2022-08-01T09:18:28;3.88;;;2.25;;
71106;SDS011;58763;47.982;11.516;2022-08-01T09:23:35;3.88;;;1.60;;
71106;SDS011;58763;47.982;11.516;2022-08-01T09:26:08;3.63;;;2.20;;
71106;SDS011;58763;47.982;11.516;2022-08-01T09:31:12;4.25;;;1.80;;
71106;SDS011;58763;47.982;11.516;2022-08-01T09:36:18;3.05;;;1.70;;
71106;SDS011;58763;47.982;11.516;2022-08-01T09:41:13;3.45;;;1.70;;
71106;SDS011;58763;47.982;11.516;2022-08-01T09:43:39;3.78;;;1.85;;
71106;SDS011;58763;47.982;11.516;2022-08-01T09:46:05;3.95;;;1.58;;
71106;SDS011;58763;47.982;11.516;2022-08-01T09:48:35;4.50;;;2.08;;
71106;SDS011;58763;47.982;11.516;2022-08-01T09:51:04;3.85;;;1.98;;
71106;SDS011;58763;47.982;11.516;2022-08-01T09:53:40;3.67;;;1.70;;
71106;SDS011;58763;47.982;11.516;2022-08-01T09:56:08;2.90;;;1.45;;
71106;SDS011;58763;47.982;11.516;2022-08-01T09:58:54;3.30;;;1.42;;
71106;SDS011;58763;47.982;11.516;2022-08-01T10:01:22;4.35;;;1.83;;
71106;SDS011;58763;47.982;11.516;2022-08-01T10:04:07;4.18;;;1.45;;
71106;SDS011;58763;47.982;11.516;2022-08-01T10:06:41;2.97;;;1.40;;
71106;SDS011;58763;47.982;11.516;2022-08-01T10:09:09;3.45;;;1.70;;
71106;SDS011;58763;47.982;11.516;2022-08-01T10:11:36;4.15;;;1.23;;
71106;SDS011;58763;47.982;11.516;2022-08-01T10:14:05;4.27;;;1.47;;
71106;SDS011;58763;47.982;11.516;2022-08-01T10:16:32;3.83;;;1.50;;
71106;SDS011;58763;47.982;11.516;2022-08-01T10:18:59;5.78;;;1.70;;
71106;SDS011;58763;47.982;11.516;2022-08-01T10:21:26;2.85;;;1.40;;
71106;SDS011;58763;47.982;11.516;2022-08-01T10:23:53;3.83;;;1.65;;
71106;SDS011;58763;47.982;11.516;2022-08-01T10:26:20;3.28;;;1.30;;
71106;SDS011;58763;47.982;11.516;2022-08-01T10:28:46;3.42;;;1.20;;
71106;SDS011;58763;47.982;11.516;2022-08-01T10:31:13;2.92;;;1.38;;
71106;SDS011;58763;47.982;11.516;2022-08-01T10:33:39;4.22;;;1.40;;
71106;SDS011;58763;47.982;11.516;2022-08-01T10:36:06;2.90;;;1.30;;
71106;SDS011;58763;47.982;11.516;2022-08-01T10:38:32;2.75;;;1.20;;
71106;SDS011;58763;47.982;11.516;2022-08-01T10:40:58;3.13;;;1.52;;
71106;SDS011;58763;47.982;11.516;2022-08-01T10:43:27;4.32;;;1.20;;
71106;SDS011;58763;47.982;11.516;2022-08-01T10:45:52;2.97;;;1.30;;
71106;SDS011;58763;47.982;11.516;2022-08-01T10:48:35;3.78;;;1.45;;
71106;SDS011;58763;47.982;11.516;2022-08-01T10:51:08;2.70;;;1.20;;
71106;SDS011;58763;47.982;11.516;2022-08-01T10:53:33;2.92;;;1.33;;
71106;SDS011;58763;47.982;11.516;2022-08-01T10:56:00;3.58;;;1.10;;
71106;SDS011;58763;47.982;11.516;2022-08-01T10:58:33;2.78;;;1.25;;
71106;SDS011;58763;47.982;11.516;2022-08-01T11:01:12;3.58;;;1.17;;
71106;SDS011;58763;47.982;11.516;2022-08-01T11:03:43;6.50;;;1.63;;
71106;SDS011;58763;47.982;11.516;2022-08-01T11:06:17;2.88;;;1.23;;
71106;SDS011;58763;47.982;11.516;2022-08-01T11:08:50;3.20;;;1.25;;
71106;SDS011;58763;47.982;11.516;2022-08-01T11:11:17;3.95;;;1.20;;
71106;SDS011;58763;47.982;11.516;2022-08-01T11:16:38;2.92;;;1.20;;
71106;SDS011;58763;47.982;11.516;2022-08-01T11:19:05;3.30;;;0.98;;
71106;SDS011;58763;47.982;11.516;2022-08-01T11:27:20;2.92;;;1.10;;
71106;SDS011;58763;47.982;11.516;2022-08-01T11:35:16;2.08;;;0.88;;
71106;SDS011;58763;47.982;11.516;2022-08-01T11:37:45;2.53;;;1.00;;
71106;SDS011;58763;47.982;11.516;2022-08-01T11:40:20;2.97;;;1.20;;
71106;SDS011;58763;47.982;11.516;2022-08-01T11:42:46;2.47;;;1.05;;
71106;SDS011;58763;47.982;11.516;2022-08-01T11:45:13;2.78;;;1.10;;
71106;SDS011;58763;47.982;11.516;2022-08-01T11:47:42;2.60;;;1.00;;
71106;SDS011;58763;47.982;11.516;2022-08-01T11:52:57;6.10;;;0.90;;
71106;SDS011;58763;47.982;11.516;2022-08-01T11:55:24;2.13;;;0.70;;
71106;SDS011;58763;47.982;11.516;2022-08-01T11:57:49;2.53;;;1.00;;
71106;SDS011;58763;47.982;11.516;2022-08-01T12:00:16;2.20;;;0.88;;
71106;SDS011;58763;47.982;11.516;2022-08-01T12:02:43;3.50;;;1.02;;
71106;SDS011;58763;47.982;11.516;2022-08-01T12:05:20;3.67;;;1.08;;
71106;SDS011;58763;47.982;11.516;2022-08-01T12:07:48;2.40;;;0.95;;
71106;SDS011;58763;47.982;11.516;2022-08-01T12:10:16;3.33;;;1.10;;
71106;SDS011;58763;47.982;11.516;2022-08-01T12:12:47;2.92;;;1.00;;
71106;SDS011;58763;47.982;11.516;2022-08-01T12:15:15;2.35;;;0.93;;
71106;SDS011;58763;47.982;11.516;2022-08-01T12:17:42;2.22;;;1.00;;
71106;SDS011;58763;47.982;11.516;2022-08-01T12:20:09;3.03;;;1.10;;
71106;SDS011;58763;47.982;11.516;2022-08-01T12:22:36;2.67;;;1.05;;
71106;SDS011;58763;47.982;11.516;2022-08-01T12:25:09;3.60;;;1.00;;
71106;SDS011;58763;47.982;11.516;2022-08-01T12:27:37;1.92;;;0.90;;
71106;SDS011;58763;47.982;11.516;2022-08-01T12:30:07;2.55;;;0.80;;
71106;SDS011;58763;47.982;11.516;2022-08-01T12:32:35;3.38;;;1.00;;
71106;SDS011;58763;47.982;11.516;2022-08-01T12:35:08;3.05;;;0.90;;
71106;SDS011;58763;47.982;11.516;2022-08-01T12:37:39;3.53;;;1.00;;
71106;SDS011;58763;47.982;11.516;2022-08-01T12:40:16;3.53;;;1.08;;
71106;SDS011;58763;47.982;11.516;2022-08-01T12:42:44;3.50;;;1.10;;
71106;SDS011;58763;47.982;11.516;2022-08-01T12:45:15;3.10;;;1.10;;
71106;SDS011;58763;47.982;11.516;2022-08-01T12:47:42;3.08;;;1.08;;
71106;SDS011;58763;47.982;11.516;2022-08-01T12:50:18;2.75;;;0.98;;
71106;SDS011;58763;47.982;11.516;2022-08-01T12:52:46;5.78;;;1.10;;
71106;SDS011;58763;47.982;11.516;2022-08-01T12:55:17;2.25;;;1.00;;
71106;SDS011;58763;47.982;11.516;2022-08-01T12:57:44;3.60;;;1.15;;
71106;SDS011;58763;47.982;11.516;2022-08-01T13:02:40;2.60;;;1.15;;
71106;SDS011;58763;47.982;11.516;2022-08-01T13:05:07;3.00;;;1.05;;
71106;SDS011;58763;47.982;11.516;2022-08-01T13:07:35;2.97;;;0.73;;
71106;SDS011;58763;47.982;11.516;2022-08-01T13:10:02;2.38;;;0.82;;
71106;SDS011;58763;47.982;11.516;2022-08-01T13:12:28;2.58;;;1.00;;
71106;SDS011;58763;47.982;11.516;2022-08-01T13:14:54;2.17;;;0.90;;
71106;SDS011;58763;47.982;11.516;2022-08-01T13:17:32;4.78;;;1.10;;
71106;SDS011;58763;47.982;11.516;2022-08-01T13:20:01;2.67;;;1.00;;
71106;SDS011;58763;47.982;11.516;2022-08-01T13:22:36;4.10;;;1.10;;
71106;SDS011;58763;47.982;11.516;2022-08-01T13:25:12;2.63;;;0.85;;
71106;SDS011;58763;47.982;11.516;2022-08-01T13:27:38;2.78;;;0.90;;
71106;SDS011;58763;47.982;11.516;2022-08-01T13:30:11;2.50;;;0.70;;
71106;SDS011;58763;47.982;11.516;2022-08-01T13:32:41;2.65;;;0.90;;
71106;SDS011;58763;47.982;11.516;2022-08-01T13:35:09;3.40;;;0.80;;
71106;SDS011;58763;47.982;11.516;2022-08-01T13:37:37;2.50;;;0.80;;
71106;SDS011;58763;47.982;11.516;2022-08-01T13:40:04;4.05;;;1.00;;
71106;SDS011;58763;47.982;11.516;2022-08-01T13:42:30;1.98;;;0.90;;
71106;SDS011;58763;47.982;11.516;2022-08-01T13:44:56;3.15;;;1.10;;
71106;SDS011;58763;47.982;11.516;2022-08-01T13:47:22;1.80;;;0.90;;
71106;SDS011;58763;47.982;11.516;2022-08-01T13:49:48;2.58;;;0.90;;
71106;SDS011;58763;47.982;11.516;2022-08-01T13:52:13;3.60;;;0.90;;
71106;SDS011;58763;47.982;11.516;2022-08-01T13:54:38;2.92;;;0.90;;
71106;SDS011;58763;47.982;11.516;2022-08-01T13:57:04;2.78;;;0.80;;
71106;SDS011;58763;47.982;11.516;2022-08-01T13:59:29;2.47;;;0.90;;
71106;SDS011;58763;47.982;11.516;2022-08-01T14:01:55;2.72;;;1.00;;
71106;SDS011;58763;47.982;11.516;2022-08-01T14:04:20;3.83;;;1.00;;
71106;SDS011;58763;47.982;11.516;2022-08-01T14:06:49;5.18;;;0.70;;
71106;SDS011;58763;47.982;11.516;2022-08-01T14:09:14;1.90;;;0.77;;
71106;SDS011;58763;47.982;11.516;2022-08-01T14:11:43;2.60;;;0.90;;
71106;SDS011;58763;47.982;11.516;2022-08-01T14:14:11;4.55;;;0.77;;
71106;SDS011;58763;47.982;11.516;2022-08-01T14:16:37;2.40;;;0.88;;
71106;SDS011;58763;47.982;11.516;2022-08-01T14:19:02;3.10;;;0.73;;
71106;SDS011;58763;47.982;11.516;2022-08-01T14:21:28;4.63;;;0.90;;
71106;SDS011;58763;47.982;11.516;2022-08-01T14:23:53;2.45;;;0.77;;
71106;SDS011;58763;47.982;11.516;2022-08-01T14:26:19;3.17;;;0.82;;
71106;SDS011;58763;47.982;11.516;2022-08-01T14:28:44;2.92;;;0.77;;
71106;SDS011;58763;47.982;11.516;2022-08-01T14:31:10;2.80;;;1.00;;
71106;SDS011;58763;47.982;11.516;2022-08-01T14:33:36;4.00;;;1.10;;
71106;SDS011;58763;47.982;11.516;2022-08-01T14:36:05;4.63;;;1.15;;
71106;SDS011;58763;47.982;11.516;2022-08-01T14:38:30;3.47;;;0.90;;
71106;SDS011;58763;47.982;11.516;2022-08-01T14:40:56;2.03;;;0.80;;
71106;SDS011;58763;47.982;11.516;2022-08-01T14:43:21;3.08;;;1.00;;
71106;SDS011;58763;47.982;11.516;2022-08-01T14:45:47;1.55;;;0.60;;
71106;SDS011;58763;47.982;11.516;2022-08-01T14:48:17;1.95;;;0.40;;
71106;SDS011;58763;47.982;11.516;2022-08-01T14:50:42;1.95;;;0.47;;
71106;SDS011;58763;47.982;11.516;2022-08-01T14:53:08;4.35;;;0.60;;
71106;SDS011;58763;47.982;11.516;2022-08-01T14:55:33;2.15;;;0.70;;
71106;SDS011;58763;47.982;11.516;2022-08-01T14:57:59;1.45;;;0.50;;
71106;SDS011;58763;47.982;11.516;2022-08-01T15:00:24;2.15;;;0.40;;
71106;SDS011;58763;47.982;11.516;2022-08-01T15:02:50;1.27;;;0.40;;
71106;SDS011;58763;47.982;11.516;2022-08-01T15:05:15;2.92;;;0.50;;
71106;SDS011;58763;47.982;11.516;2022-08-01T15:07:41;2.30;;;0.40;;
71106;SDS011;58763;47.982;11.516;2022-08-01T15:10:07;2.35;;;0.60;;
71106;SDS011;58763;47.982;11.516;2022-08-01T15:12:32;1.58;;;0.60;;
71106;SDS011;58763;47.982;11.516;2022-08-01T15:14:59;1.58;;;0.55;;
71106;SDS011;58763;47.982;11.516;2022-08-01T15:17:28;2.40;;;0.70;;
71106;SDS011;58763;47.982;11.516;2022-08-01T15:19:55;4.35;;;0.68;;